Time;durP1;ratioP1;P1;durP2;ratioP2;P2;SDS_P1;SDS_P2;PMS_P1;PMS_P2;Temp;Humidity;BMP_temperature;BMP_pressure;BME280_temperature;BME280_humidity;BME280_pressure;Samples;Min_cycle;Max_cycle;Signal;HPM_P1;HPM_P2
2023/12/14 00:00:48;;;;;;;;;;;;;;;20.24;48.22;100062.09;2099939;28;5949;-73
2023/12/14 00:01:50;;;;;;;;;;;;;;;20.24;48.14;100055.59;2101866;28;1574;-73
2023/12/14 00:02:51;;;;;;;;;;;;;;;20.23;48.13;100062.75;2098629;28;1941;-72
2023/12/14 00:03:52;;;;;;;;;;;;;;;20.23;48.08;100057.03;2099083;28;2016;-73
2023/12/14 00:04:54;;;;;;;;;;;;;;;20.23;48.28;100062.75;2097095;28;2095;-72
2023/12/14 00:05:55;;;;;;;;;;;;;;;20.22;48.00;100064.16;2100357;28;1906;-72
2023/12/14 00:06:57;;;;;;;;;;;;;;;20.23;48.13;100062.75;2101615;28;2202;-73
2023/12/14 00:07:58;;;;;;;;;;;;;;;20.22;48.13;100064.16;2099208;28;1986;-73
2023/12/14 00:08:59;;;;;;;;;;;;;;;20.22;48.31;100067.03;2099815;28;1570;-72
2023/12/14 00:10:01;;;;;;;;;;;;;;;20.21;48.37;100071.31;2097869;28;1917;-72
2023/12/14 00:11:03;;;;;;;;;;;;;;;20.21;48.21;100077.06;2099606;28;2033;-72
2023/12/14 00:12:04;;;;;;;;;;;;;;;20.20;48.30;100069.84;2103567;28;1637;-71
2023/12/14 00:13:07;;;;;;;;;;;;;;;20.21;48.28;100071.31;2098867;28;2021;-72
2023/12/14 00:14:09;;;;;;;;;;;;;;;20.20;48.18;100076.34;2098803;28;2241;-72
2023/12/14 00:15:10;;;;;;;;;;;;;;;20.19;48.35;100079.88;2097932;28;1694;-72
2023/12/14 00:16:12;;;;;;;;;;;;;;;20.19;48.35;100074.84;2098298;28;1573;-72
2023/12/14 00:17:13;;;;;;;;;;;;;;;20.19;48.18;100085.63;2104725;28;2234;-72
2023/12/14 00:18:14;;;;;;;;;;;;;;;20.18;48.19;100079.13;2107436;28;1599;-73
2023/12/14 00:19:16;;;;;;;;;;;;;;;20.18;48.18;100079.13;2099472;28;1491;-72
2023/12/14 00:20:17;;;;;;;;;;;;;;;20.19;48.30;100091.38;2101866;28;1965;-72
2023/12/14 00:21:19;;;;;;;;;;;;;;;20.19;48.27;100091.38;2100372;28;1615;-72
2023/12/14 00:22:20;;;;;;;;;;;;;;;20.19;48.06;100085.63;2097106;28;1537;-73
2023/12/14 00:23:24;;;;;;;;;;;;;;;20.18;48.09;100101.38;2100544;28;1981;-72
2023/12/14 00:24:26;;;;;;;;;;;;;;;20.18;48.02;100101.38;2101065;28;1621;-72
2023/12/14 00:25:27;;;;;;;;;;;;;;;20.17;48.16;100100.66;2099698;28;1511;-72
2023/12/14 00:26:29;;;;;;;;;;;;;;;20.17;48.06;100105.66;2099698;28;2124;-72
2023/12/14 00:27:30;;;;;;;;;;;;;;;20.18;48.08;100107.13;2102888;28;1613;-72
2023/12/14 00:28:31;;;;;;;;;;;;;;;20.17;47.99;100102.78;2099058;28;1910;-72
2023/12/14 00:29:35;;;;;;;;;;;;;;;20.16;47.99;100101.31;2102455;28;1812;-71
2023/12/14 00:30:36;;;;;;;;;;;;;;;20.14;48.27;100107.00;2099372;28;6184;-72
2023/12/14 00:31:37;;;;;;;;;;;;;;;20.16;48.19;100109.94;2101130;28;2000;-72
2023/12/14 00:32:39;;;;;;;;;;;;;;;20.15;48.09;100105.59;2100543;28;2357;-72
2023/12/14 00:33:40;;;;;;;;;;;;;;;20.15;48.06;100111.34;2102480;28;1984;-72
2023/12/14 00:34:42;;;;;;;;;;;;;;;20.15;48.19;100117.09;2101696;28;1609;-72
2023/12/14 00:35:43;;;;;;;;;;;;;;;20.15;48.07;100111.34;2098556;28;1980;-72
2023/12/14 00:36:45;;;;;;;;;;;;;;;20.14;48.05;100115.63;2099523;28;2231;-73
2023/12/14 00:37:46;;;;;;;;;;;;;;;20.13;48.08;100117.00;2101657;28;2083;-72
2023/12/14 00:38:48;;;;;;;;;;;;;;;20.14;48.15;100118.50;2098986;28;1935;-73
2023/12/14 00:39:49;;;;;;;;;;;;;;;20.14;48.02;100118.50;2098183;28;2032;-73
2023/12/14 00:40:51;;;;;;;;;;;;;;;20.13;48.05;100117.00;2102384;28;1867;-73
2023/12/14 00:41:52;;;;;;;;;;;;;;;20.13;48.03;100128.50;2102284;28;1499;-72
2023/12/14 00:42:53;;;;;;;;;;;;;;;20.13;48.02;100117.00;2099871;28;1960;-72
2023/12/14 00:43:55;;;;;;;;;;;;;;;20.12;47.99;100127.78;2098983;28;1925;-72
2023/12/14 00:44:56;;;;;;;;;;;;;;;20.11;48.13;100123.41;2097948;28;1859;-72
2023/12/14 00:45:58;;;;;;;;;;;;;;;20.11;47.98;100125.56;2097064;28;2197;-72
2023/12/14 00:47:00;;;;;;;;;;;;;;;20.12;47.95;100132.78;2098436;28;1618;-72
2023/12/14 00:48:01;;;;;;;;;;;;;;;20.11;47.92;100129.16;2099994;28;1629;-72
2023/12/14 00:49:03;;;;;;;;;;;;;;;20.11;48.07;100131.31;2100348;28;1991;-72
2023/12/14 00:50:04;;;;;;;;;;;;;;;20.11;48.02;100137.78;2103027;28;1594;-72
2023/12/14 00:51:06;;;;;;;;;;;;;;;20.11;47.86;100131.31;2101469;28;1952;-72
2023/12/14 00:52:07;;;;;;;;;;;;;;;20.09;47.88;100135.59;2098349;28;2205;-72
2023/12/14 00:53:09;;;;;;;;;;;;;;;20.09;47.86;100141.34;2099043;28;1988;-72
2023/12/14 00:54:10;;;;;;;;;;;;;;;20.11;47.91;100145.69;2097403;28;2102;-72
2023/12/14 00:55:12;;;;;;;;;;;;;;;20.09;48.04;100152.84;2099030;28;1625;-72
2023/12/14 00:56:13;;;;;;;;;;;;;;;20.08;48.00;100145.59;2098898;28;2217;-72
2023/12/14 00:57:15;;;;;;;;;;;;;;;20.08;48.08;100150.63;2103429;28;1538;-72
2023/12/14 00:58:16;;;;;;;;;;;;;;;20.08;48.02;100151.34;2099734;28;1617;-72
2023/12/14 00:59:17;;;;;;;;;;;;;;;20.08;47.83;100151.34;2101498;28;1801;-72
2023/12/14 01:00:19;;;;;;;;;;;;;;;20.07;47.88;100149.88;2100876;28;6316;-72
2023/12/14 01:01:20;;;;;;;;;;;;;;;20.07;47.99;100149.16;2101837;28;2295;-72
2023/12/14 01:02:22;;;;;;;;;;;;;;;20.07;47.86;100152.03;2101484;28;1573;-72
2023/12/14 01:03:23;;;;;;;;;;;;;;;20.06;47.92;100157.03;2097789;28;1643;-72
2023/12/14 01:04:25;;;;;;;;;;;;;;;20.07;47.85;100166.41;2099945;28;2074;-72
2023/12/14 01:05:26;;;;;;;;;;;;;;;20.05;47.81;100158.44;2097634;28;1578;-72
2023/12/14 01:06:28;;;;;;;;;;;;;;;20.05;47.83;100164.19;2098637;28;2159;-72
2023/12/14 01:07:29;;;;;;;;;;;;;;;20.05;47.80;100167.06;2101378;28;1865;-72
2023/12/14 01:08:30;;;;;;;;;;;;;;;20.05;47.73;100166.31;2103765;28;1549;-72
2023/12/14 01:09:32;;;;;;;;;;;;;;;20.04;47.91;100171.34;2101576;28;1590;-72
2023/12/14 01:10:33;;;;;;;;;;;;;;;20.04;47.83;100168.47;2098456;28;1938;-72
2023/12/14 01:11:35;;;;;;;;;;;;;;;20.04;47.82;100174.22;2102568;28;2053;-72
2023/12/14 01:12:36;;;;;;;;;;;;;;;20.03;47.78;100166.25;2098366;28;2016;-72
2023/12/14 01:13:38;;;;;;;;;;;;;;;20.03;47.74;100172.72;2101295;28;2005;-73
2023/12/14 01:14:40;;;;;;;;;;;;;;;20.03;47.93;100172.00;2100168;28;2139;-72
2023/12/14 01:15:41;;;;;;;;;;;;;;;20.03;47.74;100172.00;2099689;28;1933;-72
2023/12/14 01:16:42;;;;;;;;;;;;;;;20.02;47.68;100174.13;2100500;28;2187;-73
2023/12/14 01:17:44;;;;;;;;;;;;;;;20.01;47.71;100181.28;2099130;28;2218;-73
2023/12/14 01:18:45;;;;;;;;;;;;;;;20.02;47.79;100176.25;2097411;28;2185;-72
2023/12/14 01:19:47;;;;;;;;;;;;;;;20.01;47.82;100184.16;2098054;28;2146;-72
2023/12/14 01:20:48;;;;;;;;;;;;;;;20.01;47.88;100175.53;2101008;28;2178;-73
2023/12/14 01:21:50;;;;;;;;;;;;;;;20.00;47.75;100179.81;2102004;28;1692;-72
2023/12/14 01:22:51;;;;;;;;;;;;;;;20.00;47.87;100179.06;2098113;28;2277;-72
2023/12/14 01:23:52;;;;;;;;;;;;;;;20.00;47.72;100182.69;2099054;28;2106;-72
2023/12/14 01:24:54;;;;;;;;;;;;;;;19.99;47.69;100186.94;2097896;28;2155;-72
2023/12/14 01:25:55;;;;;;;;;;;;;;;20.00;47.57;100179.06;2097669;28;1518;-72
2023/12/14 01:26:57;;;;;;;;;;;;;;;20.00;47.64;100190.56;2097661;28;1854;-72
2023/12/14 01:28:00;;;;;;;;;;;;;;;19.99;47.74;100186.94;2102552;28;1872;-72
2023/12/14 01:29:01;;;;;;;;;;;;;;;19.98;47.78;100194.09;2099644;28;1593;-72
2023/12/14 01:30:03;;;;;;;;;;;;;;;19.98;47.61;100194.09;2101778;28;2120;-72
2023/12/14 01:31:04;;;;;;;;;;;;;;;19.98;47.69;100193.38;2099349;28;6078;-72
2023/12/14 01:32:06;;;;;;;;;;;;;;;19.98;47.72;100194.09;2098390;28;1625;-72
2023/12/14 01:33:07;;;;;;;;;;;;;;;19.97;47.56;100198.34;2100632;28;2066;-72
2023/12/14 01:34:11;;;;;;;;;;;;;;;19.98;47.65;100194.09;2096508;28;2183;-72
2023/12/14 01:35:13;;;;;;;;;;;;;;;19.98;47.53;100204.88;2099297;28;1637;-72
2023/12/14 01:36:21;;;;;;;;;;;;;;;19.95;47.68;100195.44;2100567;28;2185;-72
2023/12/14 01:37:22;;;;;;;;;;;;;;;19.97;47.50;100198.34;2100971;28;1984;-72
2023/12/14 01:38:24;;;;;;;;;;;;;;;19.97;47.56;100203.38;2099936;28;1624;-72
2023/12/14 01:39:25;;;;;;;;;;;;;;;19.95;47.66;100201.19;2101029;28;1568;-72
2023/12/14 01:40:27;;;;;;;;;;;;;;;19.95;47.51;100206.16;2099244;28;2130;-72
2023/12/14 01:41:28;;;;;;;;;;;;;;;19.95;47.46;100206.94;2098005;28;1919;-72
2023/12/14 01:42:29;;;;;;;;;;;;;;;19.94;47.63;100208.31;2096869;28;2186;-72
2023/12/14 01:43:31;;;;;;;;;;;;;;;19.95;47.60;100206.94;2099954;28;1804;-72
2023/12/14 01:44:32;;;;;;;;;;;;;;;19.94;47.34;100208.31;2101363;28;1949;-72
2023/12/14 01:45:34;;;;;;;;;;;;;;;19.96;47.50;100219.88;2102993;28;1541;-72
2023/12/14 01:46:35;;;;;;;;;;;;;;;19.96;47.54;100214.13;2098402;28;1669;-72
2023/12/14 01:47:37;;;;;;;;;;;;;;;19.96;47.51;100217.00;2101115;28;1411;-72
2023/12/14 01:48:38;;;;;;;;;;;;;;;19.97;47.41;100215.59;2099913;28;1973;-73
2023/12/14 01:49:41;;;;;;;;;;;;;;;19.97;47.38;100215.59;2099085;28;2154;-72
2023/12/14 01:50:42;;;;;;;;;;;;;;;19.96;47.38;100217.00;2098634;28;2020;-72
2023/12/14 01:51:44;;;;;;;;;;;;;;;19.96;47.32;100211.25;2101944;28;1819;-72
2023/12/14 01:52:45;;;;;;;;;;;;;;;19.97;47.38;100214.88;2102910;28;2288;-72
2023/12/14 01:53:47;;;;;;;;;;;;;;;19.98;47.43;100214.22;2102215;28;1910;-72
2023/12/14 01:54:48;;;;;;;;;;;;;;;19.98;47.43;100211.34;2099772;28;1987;-72
2023/12/14 01:55:50;;;;;;;;;;;;;;;19.99;47.28;100223.56;2097883;28;1811;-72
2023/12/14 01:56:51;;;;;;;;;;;;;;;19.99;47.26;100215.69;2102084;28;1613;-72
2023/12/14 01:57:53;;;;;;;;;;;;;;;19.99;47.21;100215.69;2098721;28;1987;-72
2023/12/14 01:58:54;;;;;;;;;;;;;;;19.99;47.30;100218.56;2098231;28;2227;-73
2023/12/14 01:59:56;;;;;;;;;;;;;;;20.01;47.33;100223.66;2099782;28;2056;-72
2023/12/14 02:01:16;;;;;;;;;;;;;;;20.00;47.51;100222.91;2098047;28;7220;-72
2023/12/14 02:02:17;;;;;;;;;;;;;;;20.01;47.38;100227.25;2101530;28;2037;-72
2023/12/14 02:03:19;;;;;;;;;;;;;;;20.01;47.51;100223.66;2097644;28;1969;-72
2023/12/14 02:04:20;;;;;;;;;;;;;;;20.01;47.45;100224.38;2098361;28;1969;-72
2023/12/14 02:05:21;;;;;;;;;;;;;;;20.02;47.48;100220.13;2099941;28;1526;-72
2023/12/14 02:06:23;;;;;;;;;;;;;;;20.02;47.55;100222.22;2099896;28;2076;-73
2023/12/14 02:07:24;;;;;;;;;;;;;;;20.01;47.62;100221.50;2100821;28;1510;-72
2023/12/14 02:08:27;;;;;;;;;;;;;;;20.03;47.43;100226.59;2097470;28;2177;-73
2023/12/14 02:09:28;;;;;;;;;;;;;;;20.02;47.69;100219.38;2099623;28;2274;-73
2023/12/14 02:10:29;;;;;;;;;;;;;;;20.01;47.68;100221.50;2099350;28;1904;-72
2023/12/14 02:11:31;;;;;;;;;;;;;;;20.00;47.49;100231.53;2100024;28;1822;-72
2023/12/14 02:12:34;;;;;;;;;;;;;;;20.01;47.51;100233.00;2100264;28;2229;-72
2023/12/14 02:13:35;;;;;;;;;;;;;;;20.02;47.50;100234.50;2097965;28;1902;-72
2023/12/14 02:14:37;;;;;;;;;;;;;;;20.01;47.67;100235.16;2097887;28;2020;-72
2023/12/14 02:15:38;;;;;;;;;;;;;;;20.01;47.52;100244.50;2101274;28;1819;-72
2023/12/14 02:16:40;;;;;;;;;;;;;;;20.01;47.54;100238.75;2096649;28;1510;-73
2023/12/14 02:17:41;;;;;;;;;;;;;;;20.00;47.81;100237.28;2097922;28;2100;-72
2023/12/14 02:18:44;;;;;;;;;;;;;;;20.01;47.51;100243.75;2095947;28;2188;-72
2023/12/14 02:19:45;;;;;;;;;;;;;;;20.01;47.61;100238.03;2099319;28;1858;-72
2023/12/14 02:20:47;;;;;;;;;;;;;;;19.99;47.53;100241.53;2095896;28;1945;-72
2023/12/14 02:21:48;;;;;;;;;;;;;;;20.00;47.66;100243.03;2100946;28;2073;-72
2023/12/14 02:22:50;;;;;;;;;;;;;;;20.00;47.73;100248.78;2100989;28;1985;-72
2023/12/14 02:23:52;;;;;;;;;;;;;;;20.00;47.69;100243.03;2099411;28;2127;-72
2023/12/14 02:24:53;;;;;;;;;;;;;;;19.99;47.81;100250.16;2097492;28;1562;-72
2023/12/14 02:25:54;;;;;;;;;;;;;;;19.98;47.59;100240.06;2101146;28;2118;-72
2023/12/14 02:26:56;;;;;;;;;;;;;;;19.99;47.54;100237.94;2096061;28;2111;-72
2023/12/14 02:28:04;;;;;;;;;;;;;;;19.99;47.65;100252.31;2094771;28;2141;-72
2023/12/14 02:29:05;;;;;;;;;;;;;;;19.99;47.57;100253.03;2094986;28;1602;-73
2023/12/14 02:30:07;;;;;;;;;;;;;;;19.98;47.66;100251.56;2094231;28;6214;-72
2023/12/14 02:31:09;;;;;;;;;;;;;;;19.98;47.58;100250.84;2097930;28;1946;-73
2023/12/14 02:32:10;;;;;;;;;;;;;;;19.98;47.79;100251.56;2097316;28;2024;-73
2023/12/14 02:33:11;;;;;;;;;;;;;;;19.98;47.62;100256.59;2100053;28;2082;-73
2023/12/14 02:34:13;;;;;;;;;;;;;;;19.98;47.63;100257.31;2099256;28;2450;-73
2023/12/14 02:35:14;;;;;;;;;;;;;;;19.98;47.61;100262.34;2096178;28;1940;-73
2023/12/14 02:36:16;;;;;;;;;;;;;;;19.97;47.69;100257.97;2097280;28;2079;-73
2023/12/14 02:37:17;;;;;;;;;;;;;;;19.96;47.79;100260.13;2098087;28;2032;-73
2023/12/14 02:38:18;;;;;;;;;;;;;;;19.96;47.72;100265.84;2097931;28;2132;-73
2023/12/14 02:39:20;;;;;;;;;;;;;;;19.96;47.59;100260.13;2100745;28;1725;-73
2023/12/14 02:40:21;;;;;;;;;;;;;;;19.96;47.72;100265.84;2101468;28;1780;-73
2023/12/14 02:41:23;;;;;;;;;;;;;;;19.95;47.58;100264.41;2098613;28;1609;-73
2023/12/14 02:42:24;;;;;;;;;;;;;;;19.95;47.61;100263.63;2101112;28;1614;-73
2023/12/14 02:43:26;;;;;;;;;;;;;;;19.94;47.65;100265.78;2099666;28;1692;-73
2023/12/14 02:44:27;;;;;;;;;;;;;;;19.94;47.67;100262.91;2099548;28;2013;-72
2023/12/14 02:45:29;;;;;;;;;;;;;;;19.95;47.64;100263.63;2096936;28;2111;-73
2023/12/14 02:46:30;;;;;;;;;;;;;;;19.94;47.59;100265.78;2100766;28;1535;-73
2023/12/14 02:47:31;;;;;;;;;;;;;;;19.94;47.59;100262.91;2099605;28;1684;-73
2023/12/14 02:48:33;;;;;;;;;;;;;;;19.94;47.76;100267.91;2101847;28;1584;-72
2023/12/14 02:49:34;;;;;;;;;;;;;;;19.94;47.62;100256.44;2097836;28;1937;-72
2023/12/14 02:50:36;;;;;;;;;;;;;;;19.93;47.69;100261.44;2096771;28;2258;-73
2023/12/14 02:51:37;;;;;;;;;;;;;;;19.92;47.78;100254.19;2100783;28;1859;-73
2023/12/14 02:52:38;;;;;;;;;;;;;;;19.93;47.54;100267.19;2098298;28;1915;-72
2023/12/14 02:53:41;;;;;;;;;;;;;;;19.93;47.59;100267.19;2100511;28;2004;-73
2023/12/14 02:54:42;;;;;;;;;;;;;;;19.92;47.51;100265.69;2098168;28;2139;-73
2023/12/14 02:55:43;;;;;;;;;;;;;;;19.92;47.46;100262.81;2098093;28;2241;-73
2023/12/14 02:56:45;;;;;;;;;;;;;;;19.92;47.54;100277.19;2097201;28;2305;-73
2023/12/14 02:57:46;;;;;;;;;;;;;;;19.91;47.58;100275.72;2096993;28;2306;-73
2023/12/14 02:58:51;;;;;;;;;;;;;;;19.91;47.62;100275.72;2096559;28;2093;-73
2023/12/14 02:59:52;;;;;;;;;;;;;;;19.91;47.58;100275.72;2096683;28;2042;-73
2023/12/14 03:00:53;;;;;;;;;;;;;;;19.91;47.49;100281.47;2097676;28;5945;-73
2023/12/14 03:01:55;;;;;;;;;;;;;;;19.91;47.51;100292.25;2099147;28;2142;-72
2023/12/14 03:02:57;;;;;;;;;;;;;;;19.90;47.62;100285.72;2096552;28;2134;-73
2023/12/14 03:03:58;;;;;;;;;;;;;;;19.89;47.57;100284.25;2097337;28;1997;-72
2023/12/14 03:04:59;;;;;;;;;;;;;;;19.90;47.58;100285.72;2098677;28;1652;-73
2023/12/14 03:06:01;;;;;;;;;;;;;;;19.90;47.60;100285.00;2097209;28;2182;-72
2023/12/14 03:07:02;;;;;;;;;;;;;;;19.90;47.66;100290.75;2101245;28;1524;-73
2023/12/14 03:08:04;;;;;;;;;;;;;;;19.89;47.53;100290.00;2095323;28;2235;-72
2023/12/14 03:09:05;;;;;;;;;;;;;;;19.89;47.55;100295.75;2097986;28;1901;-72
2023/12/14 03:10:07;;;;;;;;;;;;;;;19.88;47.51;100297.91;2097607;28;1541;-73
2023/12/14 03:11:08;;;;;;;;;;;;;;;19.88;47.52;100297.13;2098939;28;1887;-73
2023/12/14 03:12:10;;;;;;;;;;;;;;;19.88;47.61;100300.78;2098290;28;2090;-73
2023/12/14 03:13:11;;;;;;;;;;;;;;;19.87;47.45;100293.53;2098762;28;1935;-73
2023/12/14 03:14:13;;;;;;;;;;;;;;;19.87;47.59;100299.28;2084992;28;1995;-73
2023/12/14 03:15:16;;;;;;;;;;;;;;;19.86;47.48;100300.69;2089873;28;1609;-72
2023/12/14 03:16:20;;;;;;;;;;;;;;;19.87;47.43;100304.28;2099410;28;2114;-73
2023/12/14 03:17:22;;;;;;;;;;;;;;;19.87;47.55;100304.28;2099221;28;1527;-73
2023/12/14 03:18:23;;;;;;;;;;;;;;;19.86;47.49;100309.31;2100976;28;2001;-73
2023/12/14 03:19:25;;;;;;;;;;;;;;;19.87;47.45;100315.78;2097322;28;1933;-73
2023/12/14 03:20:26;;;;;;;;;;;;;;;19.85;47.46;100309.97;2097212;28;1807;-73
2023/12/14 03:21:28;;;;;;;;;;;;;;;19.86;47.53;100311.44;2100185;28;1554;-73
2023/12/14 03:22:29;;;;;;;;;;;;;;;19.85;47.42;100312.84;2097286;28;1966;-73
2023/12/14 03:23:31;;;;;;;;;;;;;;;19.84;47.40;100311.38;2098804;28;1969;-73
2023/12/14 03:24:32;;;;;;;;;;;;;;;19.84;47.40;100309.22;2102549;28;1878;-74
2023/12/14 03:25:34;;;;;;;;;;;;;;;19.85;47.42;100322.19;2097694;28;2249;-73
2023/12/14 03:26:35;;;;;;;;;;;;;;;19.83;47.34;100313.47;2100016;28;1977;-73
2023/12/14 03:27:36;;;;;;;;;;;;;;;19.83;47.46;100319.22;2099992;28;1656;-73
2023/12/14 03:28:38;;;;;;;;;;;;;;;19.83;47.38;100321.38;2098098;28;1961;-73
2023/12/14 03:29:39;;;;;;;;;;;;;;;19.84;47.41;100317.13;2099714;28;1542;-73
2023/12/14 03:30:41;;;;;;;;;;;;;;;19.83;47.50;100324.25;2099060;28;5965;-73
2023/12/14 03:31:42;;;;;;;;;;;;;;;19.83;47.29;100330.00;2100185;28;1785;-72
2023/12/14 03:32:43;;;;;;;;;;;;;;;19.82;47.31;100317.03;2100715;28;1569;-73
2023/12/14 03:33:45;;;;;;;;;;;;;;;19.82;47.33;100325.66;2098471;28;2140;-73
2023/12/14 03:34:47;;;;;;;;;;;;;;;19.82;47.28;100325.66;2100264;28;1936;-73
2023/12/14 03:35:48;;;;;;;;;;;;;;;19.82;47.36;100328.53;2096987;28;1988;-73
2023/12/14 03:36:49;;;;;;;;;;;;;;;19.82;47.40;100331.41;2099358;28;2342;-72
2023/12/14 03:37:51;;;;;;;;;;;;;;;19.79;47.40;100327.72;2098914;28;1843;-73
2023/12/14 03:38:52;;;;;;;;;;;;;;;19.82;47.37;100337.16;2098146;28;1950;-72
2023/12/14 03:39:54;;;;;;;;;;;;;;;19.80;47.35;100334.19;2100879;28;1994;-73
2023/12/14 03:40:56;;;;;;;;;;;;;;;19.79;47.19;100327.72;2100442;28;2004;-72
2023/12/14 03:41:57;;;;;;;;;;;;;;;19.79;47.18;100338.44;2096527;28;1623;-73
2023/12/14 03:42:59;;;;;;;;;;;;;;;19.80;47.29;100340.66;2100908;28;1650;-73
2023/12/14 03:44:00;;;;;;;;;;;;;;;19.79;47.31;100338.44;2098409;28;1984;-73
2023/12/14 03:45:02;;;;;;;;;;;;;;;19.77;47.26;100336.25;2099439;28;1550;-72
2023/12/14 03:46:03;;;;;;;;;;;;;;;19.77;47.11;100339.13;2097873;28;2258;-73
2023/12/14 03:47:04;;;;;;;;;;;;;;;19.79;47.14;100344.19;2096866;28;1606;-73
2023/12/14 03:48:06;;;;;;;;;;;;;;;19.79;47.09;100344.19;2097815;28;1995;-73
2023/12/14 03:49:08;;;;;;;;;;;;;;;19.79;47.16;100344.19;2101409;28;1934;-72
2023/12/14 03:50:13;;;;;;;;;;;;;;;19.79;47.05;100347.06;2097574;28;1985;-73
2023/12/14 03:51:17;;;;;;;;;;;;;;;19.79;47.00;100349.94;2098900;28;1613;-73
2023/12/14 03:52:19;;;;;;;;;;;;;;;19.81;47.15;100358.63;2097749;28;1541;-73
2023/12/14 03:53:20;;;;;;;;;;;;;;;19.81;46.96;100352.88;2096921;28;1920;-73
2023/12/14 03:54:21;;;;;;;;;;;;;;;19.82;47.06;100360.13;2096504;28;1878;-72
2023/12/14 03:55:23;;;;;;;;;;;;;;;19.83;47.09;100361.59;2097738;28;2250;-73
2023/12/14 03:56:24;;;;;;;;;;;;;;;19.83;47.16;100367.34;2096619;28;2253;-73
2023/12/14 03:57:26;;;;;;;;;;;;;;;19.84;47.02;100363.09;2099652;28;1661;-73
2023/12/14 03:58:27;;;;;;;;;;;;;;;19.84;47.06;100365.97;2100998;28;2005;-73
2023/12/14 03:59:28;;;;;;;;;;;;;;;19.86;46.99;100363.16;2100319;28;1768;-72
2023/12/14 04:00:30;;;;;;;;;;;;;;;19.86;47.22;100366.78;2094517;28;5972;-73
2023/12/14 04:01:33;;;;;;;;;;;;;;;19.87;47.09;100368.25;2100427;28;2256;-72
2023/12/14 04:02:34;;;;;;;;;;;;;;;19.87;46.98;100368.25;2101678;28;1988;-72
2023/12/14 04:03:36;;;;;;;;;;;;;;;19.88;46.96;100366.09;2099823;28;1589;-73
2023/12/14 04:04:37;;;;;;;;;;;;;;;19.89;47.21;100373.34;2098576;28;1971;-73
2023/12/14 04:05:39;;;;;;;;;;;;;;;19.90;47.16;100374.06;2100311;28;1843;-73
2023/12/14 04:06:41;;;;;;;;;;;;;;;19.89;47.23;100370.47;2100065;28;2246;-73
2023/12/14 04:07:42;;;;;;;;;;;;;;;19.89;47.33;100376.22;2097573;28;1625;-73
2023/12/14 04:08:44;;;;;;;;;;;;;;;19.90;47.25;100374.06;2100733;28;1961;-73
2023/12/14 04:09:48;;;;;;;;;;;;;;;19.89;47.35;100376.22;2102285;28;1631;-73
2023/12/14 04:10:49;;;;;;;;;;;;;;;19.90;47.25;100377.69;2096926;28;1598;-73
2023/12/14 04:11:51;;;;;;;;;;;;;;;19.91;47.36;100379.16;2100483;28;1625;-72
2023/12/14 04:12:52;;;;;;;;;;;;;;;19.90;47.36;100376.94;2097208;28;2046;-73
2023/12/14 04:13:54;;;;;;;;;;;;;;;19.90;47.30;100377.69;2101423;28;1498;-73
2023/12/14 04:14:56;;;;;;;;;;;;;;;19.90;47.52;100377.69;2098036;28;1999;-73
2023/12/14 04:15:57;;;;;;;;;;;;;;;19.90;47.41;100371.19;2100496;28;2083;-72
2023/12/14 04:16:59;;;;;;;;;;;;;;;19.90;47.27;100377.69;2099350;28;1652;-73
2023/12/14 04:18:00;;;;;;;;;;;;;;;19.91;47.29;100384.19;2098481;28;1900;-73
2023/12/14 04:19:02;;;;;;;;;;;;;;;19.90;47.21;100389.16;2098733;28;1988;-73
2023/12/14 04:20:05;;;;;;;;;;;;;;;19.90;47.51;100389.16;2101641;28;1828;-73
2023/12/14 04:21:07;;;;;;;;;;;;;;;19.91;47.37;100390.66;2097184;28;2033;-72
2023/12/14 04:22:08;;;;;;;;;;;;;;;19.90;47.60;100392.03;2100113;28;2210;-73
2023/12/14 04:23:10;;;;;;;;;;;;;;;19.91;47.37;100393.53;2099215;28;1785;-73
2023/12/14 04:24:12;;;;;;;;;;;;;;;19.92;47.46;100391.41;2099366;28;1573;-74
2023/12/14 04:25:13;;;;;;;;;;;;;;;19.92;47.46;100397.16;2097880;28;1920;-72
2023/12/14 04:26:15;;;;;;;;;;;;;;;19.92;47.58;100397.88;2100275;28;1996;-73
2023/12/14 04:27:16;;;;;;;;;;;;;;;19.93;47.48;100396.50;2099289;28;1988;-73
2023/12/14 04:28:18;;;;;;;;;;;;;;;19.93;47.68;100393.63;2102993;28;1604;-73
2023/12/14 04:29:19;;;;;;;;;;;;;;;19.94;47.50;100389.34;2099548;28;1970;-73
2023/12/14 04:30:21;;;;;;;;;;;;;;;19.93;47.62;100390.75;2099324;28;6144;-73
2023/12/14 04:31:22;;;;;;;;;;;;;;;19.95;47.49;100393.72;2099244;28;2010;-73
2023/12/14 04:32:23;;;;;;;;;;;;;;;19.95;47.63;100393.72;2101877;28;1621;-72
2023/12/14 04:33:25;;;;;;;;;;;;;;;19.96;47.61;100388.69;2098129;28;2153;-72
2023/12/14 04:34:26;;;;;;;;;;;;;;;19.96;47.48;100398.06;2099996;28;1981;-73
2023/12/14 04:35:28;;;;;;;;;;;;;;;19.96;47.54;100392.31;2101133;28;2051;-73
2023/12/14 04:36:29;;;;;;;;;;;;;;;19.97;47.55;100398.78;2099877;28;2347;-72
2023/12/14 04:37:31;;;;;;;;;;;;;;;19.96;47.53;100398.06;2098261;28;1522;-72
2023/12/14 04:38:32;;;;;;;;;;;;;;;19.96;47.68;100395.19;2100402;28;1839;-72
2023/12/14 04:39:34;;;;;;;;;;;;;;;19.95;47.74;100402.34;2100511;28;1638;-71
2023/12/14 04:40:35;;;;;;;;;;;;;;;19.94;47.69;100395.09;2099652;28;1920;-72
2023/12/14 04:41:37;;;;;;;;;;;;;;;19.95;47.60;100401.56;2102459;28;1435;-72
2023/12/14 04:42:38;;;;;;;;;;;;;;;19.94;47.75;100394.34;2101929;28;1790;-72
2023/12/14 04:43:39;;;;;;;;;;;;;;;19.95;47.80;100398.69;2099397;28;1784;-72
2023/12/14 04:44:41;;;;;;;;;;;;;;;19.95;47.58;100410.19;2097143;28;1924;-71
2023/12/14 04:45:42;;;;;;;;;;;;;;;19.95;47.79;100396.59;2100392;28;1893;-71
2023/12/14 04:46:44;;;;;;;;;;;;;;;19.95;47.69;100402.34;2097895;28;2174;-72
2023/12/14 04:47:45;;;;;;;;;;;;;;;19.96;47.68;100403.78;2099346;28;1927;-72
2023/12/14 04:48:47;;;;;;;;;;;;;;;19.97;47.68;100410.28;2102535;28;1954;-72
2023/12/14 04:49:48;;;;;;;;;;;;;;;19.96;47.58;100409.53;2100889;28;2110;-74
2023/12/14 04:50:50;;;;;;;;;;;;;;;19.97;47.83;100413.16;2098930;28;2019;-72
2023/12/14 04:51:51;;;;;;;;;;;;;;;19.97;47.72;100404.53;2099196;28;1556;-73
2023/12/14 04:52:52;;;;;;;;;;;;;;;19.97;47.65;100411.00;2099643;28;1749;-73
2023/12/14 04:53:54;;;;;;;;;;;;;;;19.98;47.63;100417.53;2099454;28;1656;-72
2023/12/14 04:54:55;;;;;;;;;;;;;;;19.98;47.63;100415.38;2098067;28;2003;-72
2023/12/14 04:55:57;;;;;;;;;;;;;;;19.99;47.65;100413.97;2097512;28;2266;-72
2023/12/14 04:56:58;;;;;;;;;;;;;;;19.99;47.73;100421.84;2095622;28;2162;-72
2023/12/14 04:58:00;;;;;;;;;;;;;;;19.99;47.72;100422.59;2097439;28;2201;-72
2023/12/14 04:59:01;;;;;;;;;;;;;;;20.00;47.73;100420.47;2099895;28;2298;-72
2023/12/14 05:00:04;;;;;;;;;;;;;;;20.00;47.77;100420.47;2098251;28;2118;-72
2023/12/14 05:01:05;;;;;;;;;;;;;;;20.00;47.60;100429.84;2097101;28;5901;-73
2023/12/14 05:02:07;;;;;;;;;;;;;;;19.99;47.75;100431.22;2098540;28;2123;-72
2023/12/14 05:03:08;;;;;;;;;;;;;;;20.01;47.70;100424.81;2099761;28;2044;-73
2023/12/14 05:04:10;;;;;;;;;;;;;;;20.00;47.63;100421.22;2099424;28;2090;-73
2023/12/14 05:05:12;;;;;;;;;;;;;;;20.00;47.81;100429.84;2099861;28;1987;-72
2023/12/14 05:06:13;;;;;;;;;;;;;;;20.01;47.76;100433.44;2097509;28;1988;-75
2023/12/14 05:07:15;;;;;;;;;;;;;;;20.00;47.81;100432.72;2097170;28;1992;-72
2023/12/14 05:08:16;;;;;;;;;;;;;;;20.01;47.92;100453.56;2099855;28;2102;-73
2023/12/14 05:09:18;;;;;;;;;;;;;;;20.01;47.78;100451.41;2100738;28;1502;-73
2023/12/14 05:10:19;;;;;;;;;;;;;;;20.00;47.90;100452.81;2098216;28;1992;-72
2023/12/14 05:11:20;;;;;;;;;;;;;;;20.00;47.83;100458.56;2101199;28;1554;-72
2023/12/14 05:12:22;;;;;;;;;;;;;;;20.00;47.76;100466.47;2102263;28;1584;-72
2023/12/14 05:13:23;;;;;;;;;;;;;;;19.99;47.82;100465.69;2097322;28;1956;-72
2023/12/14 05:14:26;;;;;;;;;;;;;;;20.00;47.84;100457.84;2098338;28;1933;-72
2023/12/14 05:15:28;;;;;;;;;;;;;;;20.00;47.74;100454.97;2097600;28;1979;-72
2023/12/14 05:16:30;;;;;;;;;;;;;;;19.99;47.74;100454.19;2095874;28;2056;-72
2023/12/14 05:17:31;;;;;;;;;;;;;;;19.99;47.82;100465.69;2099665;28;1879;-72
2023/12/14 05:18:33;;;;;;;;;;;;;;;20.00;47.86;100467.19;2099745;28;2086;-72
2023/12/14 05:19:35;;;;;;;;;;;;;;;20.01;47.78;100467.94;2098502;28;2087;-72
2023/12/14 05:20:37;;;;;;;;;;;;;;;20.01;47.78;100479.44;2100032;28;1966;-73
2023/12/14 05:21:39;;;;;;;;;;;;;;;20.01;47.85;100474.41;2097351;28;1831;-72